Time;durP1;ratioP1;P1;durP2;ratioP2;P2;SDS_P1;SDS_P2;PMS_P1;PMS_P2;Temp;Humidity;BMP_temperature;BMP_pressure;BME280_temperature;BME280_humidity;BME280_pressure;Samples;Min_cycle;Max_cycle;Signal;HPM_P1;HPM_P2
2022/12/07 00:01:57;;;;;;;9.32;1.98;;;;;;;;;;5017963;28;20520;-63
2022/12/07 00:04:27;;;;;;;3.38;1.98;;;;;;;;;;5050524;28;20045;-63
2022/12/07 00:06:57;;;;;;;7.78;2.38;;;;;;;;;;5050282;28;20095;-64
2022/12/07 00:09:28;;;;;;;4.18;1.88;;;;;;;;;;5050413;28;20057;-64
2022/12/07 00:11:58;;;;;;;6.68;1.55;;;;;;;;;;4990638;28;20086;-63
2022/12/07 00:14:28;;;;;;;6.72;1.52;;;;;;;;;;4991096;28;20495;-63
2022/12/07 00:16:58;;;;;;;2.67;1.65;;;;;;;;;;4990906;28;20066;-63
2022/12/07 00:19:28;;;;;;;6.70;1.50;;;;;;;;;;4990643;28;20053;-63
2022/12/07 00:21:58;;;;;;;3.63;1.33;;;;;;;;;;5008530;28;20610;-64
2022/12/07 00:24:27;;;;;;;3.28;1.33;;;;;;;;;;4981180;28;20058;-63
2022/12/07 00:26:57;;;;;;;4.60;1.50;;;;;;;;;;5030322;28;20050;-63
2022/12/07 00:29:28;;;;;;;3.90;1.45;;;;;;;;;;4971076;28;20073;-64
2022/12/07 00:31:57;;;;;;;7.60;2.40;;;;;;;;;;4954935;28;20156;-63
2022/12/07 00:34:28;;;;;;;3.95;1.55;;;;;;;;;;4939027;28;20522;-64
2022/12/07 00:36:57;;;;;;;4.05;1.70;;;;;;;;;;4958105;28;20530;-64
2022/12/07 00:39:27;;;;;;;3.25;1.13;;;;;;;;;;4958537;28;20070;-64
2022/12/07 00:41:57;;;;;;;6.30;1.35;;;;;;;;;;4990403;28;20643;-63
2022/12/07 00:44:27;;;;;;;3.70;1.70;;;;;;;;;;4989832;28;20050;-64
2022/12/07 00:46:57;;;;;;;4.85;1.70;;;;;;;;;;4990484;28;20070;-63
2022/12/07 00:49:27;;;;;;;6.32;1.90;;;;;;;;;;4961586;28;20785;-63
2022/12/07 00:51:56;;;;;;;7.05;1.63;;;;;;;;;;5016600;28;20064;-63
2022/12/07 00:54:26;;;;;;;5.70;1.50;;;;;;;;;;5033081;28;20071;-63
2022/12/07 00:56:56;;;;;;;4.63;1.92;;;;;;;;;;5048994;28;20053;-63
2022/12/07 00:59:26;;;;;;;10.45;1.75;;;;;;;;;;5048558;28;20065;-63
2022/12/07 01:01:55;;;;;;;2.78;1.92;;;;;;;;;;5016023;28;20049;-64
2022/12/07 01:04:25;;;;;;;3.72;1.77;;;;;;;;;;5015945;28;20071;-64
2022/12/07 01:06:55;;;;;;;8.10;2.20;;;;;;;;;;5066125;28;20059;-63
2022/12/07 01:09:25;;;;;;;6.35;1.42;;;;;;;;;;5055498;28;20059;-64
2022/12/07 01:11:55;;;;;;;4.15;2.45;;;;;;;;;;5089279;28;20067;-63
2022/12/07 01:14:25;;;;;;;4.20;2.15;;;;;;;;;;5089298;28;20060;-63
2022/12/07 01:16:55;;;;;;;8.27;2.95;;;;;;;;;;5089511;28;20052;-64
2022/12/07 01:19:25;;;;;;;10.25;2.85;;;;;;;;;;5089080;28;20044;-63
2022/12/07 01:21:55;;;;;;;6.07;2.50;;;;;;;;;;5089438;28;20039;-63
2022/12/07 01:24:25;;;;;;;9.63;2.92;;;;;;;;;;5089012;28;20574;-64
2022/12/07 01:26:54;;;;;;;5.50;2.08;;;;;;;;;;5038712;28;20520;-63
2022/12/07 01:29:25;;;;;;;8.77;2.03;;;;;;;;;;5089248;28;20455;-63
2022/12/07 01:31:54;;;;;;;3.88;1.88;;;;;;;;;;5072405;28;20052;-64
2022/12/07 01:34:25;;;;;;;4.57;2.58;;;;;;;;;;5089146;28;20059;-64
2022/12/07 01:36:54;;;;;;;7.57;1.88;;;;;;;;;;5075852;28;20423;-64
2022/12/07 01:39:25;;;;;;;9.85;2.90;;;;;;;;;;5048370;28;20552;-64
2022/12/07 01:41:55;;;;;;;4.88;2.90;;;;;;;;;;5032305;28;20412;-63
2022/12/07 01:44:27;;;;;;;6.78;3.20;;;;;;;;;;5015401;28;20420;-66
2022/12/07 01:47:02;;;;;;;5.10;2.20;;;;;;;;;;4999388;28;20053;-63
2022/12/07 01:49:36;;;;;;;6.75;2.22;;;;;;;;;;5048211;28;20045;-63
2022/12/07 01:52:21;;;;;;;9.07;2.95;;;;;;;;;;5028133;28;20049;-64
2022/12/07 01:54:55;;;;;;;10.23;2.85;;;;;;;;;;5027724;28;20057;-63
2022/12/07 01:57:27;;;;;;;5.78;2.17;;;;;;;;;;4996392;28;20057;-64
2022/12/07 01:59:59;;;;;;;5.97;2.53;;;;;;;;;;5028228;28;20057;-64
2022/12/07 02:02:46;;;;;;;5.53;1.70;;;;;;;;;;4916882;28;20069;-64
2022/12/07 02:05:18;;;;;;;5.60;1.95;;;;;;;;;;4940496;28;20422;-64
2022/12/07 02:07:49;;;;;;;7.20;2.15;;;;;;;;;;4972864;28;20054;-64
2022/12/07 02:10:25;;;;;;;4.03;1.63;;;;;;;;;;4956458;28;20065;-63
2022/12/07 02:13:02;;;;;;;6.63;2.03;;;;;;;;;;4956564;28;20529;-63
2022/12/07 02:16:05;;;;;;;5.20;2.00;;;;;;;;;;4988828;28;20053;-63
2022/12/07 02:18:49;;;;;;;10.93;1.83;;;;;;;;;;5048055;28;20044;-64
2022/12/07 02:21:31;;;;;;;4.55;1.48;;;;;;;;;;5047972;28;20150;-63
2022/12/07 02:24:07;;;;;;;3.75;1.95;;;;;;;;;;5048111;28;20056;-64
2022/12/07 02:27:14;;;;;;;10.85;2.03;;;;;;;;;;5031158;28;20049;-64
2022/12/07 02:30:14;;;;;;;4.47;1.92;;;;;;;;;;5024763;28;20412;-64
2022/12/07 02:33:07;;;;;;;7.88;1.73;;;;;;;;;;5068048;28;20074;-64
2022/12/07 02:35:46;;;;;;;4.72;1.90;;;;;;;;;;5067947;28;20096;-64
2022/12/07 02:38:35;;;;;;;6.47;2.47;;;;;;;;;;5067976;28;20056;-63
2022/12/07 02:41:12;;;;;;;10.15;1.80;;;;;;;;;;5088708;28;20403;-63
2022/12/07 02:43:56;;;;;;;6.25;2.33;;;;;;;;;;5110939;28;20066;-63
2022/12/07 02:46:36;;;;;;;8.55;1.67;;;;;;;;;;5093254;28;20483;-63
2022/12/07 02:49:08;;;;;;;7.20;1.75;;;;;;;;;;5061929;28;20536;-63
2022/12/07 02:51:47;;;;;;;7.95;2.63;;;;;;;;;;5091836;28;20047;-63
2022/12/07 02:54:20;;;;;;;9.20;2.67;;;;;;;;;;5091753;28;20055;-63
2022/12/07 02:57:18;;;;;;;9.18;2.05;;;;;;;;;;5110366;28;20044;-63
2022/12/07 03:00:09;;;;;;;7.65;2.20;;;;;;;;;;5111072;28;20038;-63
2022/12/07 03:02:48;;;;;;;7.43;1.75;;;;;;;;;;5087819;28;20526;-64
2022/12/07 03:05:28;;;;;;;7.95;2.03;;;;;;;;;;5053991;28;20051;-64
2022/12/07 03:08:37;;;;;;;9.00;1.77;;;;;;;;;;5087839;28;20507;-64
2022/12/07 03:11:19;;;;;;;8.68;2.47;;;;;;;;;;5054413;28;20075;-63
2022/12/07 03:13:58;;;;;;;4.05;2.60;;;;;;;;;;5047287;28;20056;-64
2022/12/07 03:16:35;;;;;;;6.47;2.58;;;;;;;;;;5031246;28;20060;-63
2022/12/07 03:19:17;;;;;;;5.57;2.10;;;;;;;;;;5047216;28;20173;-64
2022/12/07 03:21:57;;;;;;;9.85;2.08;;;;;;;;;;5047771;28;20065;-64
2022/12/07 03:24:56;;;;;;;6.55;2.28;;;;;;;;;;5018005;28;20063;-64
2022/12/07 03:27:55;;;;;;;7.00;2.25;;;;;;;;;;4939919;28;20058;-63
2022/12/07 03:30:36;;;;;;;5.68;2.05;;;;;;;;;;4972179;28;20050;-63
2022/12/07 03:33:29;;;;;;;4.00;1.70;;;;;;;;;;4972061;28;20058;-63
2022/12/07 03:36:17;;;;;;;4.15;2.47;;;;;;;;;;4956343;28;20050;-63
2022/12/07 03:39:13;;;;;;;7.43;2.55;;;;;;;;;;4972198;28;20054;-63
2022/12/07 03:41:44;;;;;;;5.07;2.00;;;;;;;;;;4959218;28;20054;-63
2022/12/07 03:44:16;;;;;;;7.55;1.95;;;;;;;;;;4995955;28;20180;-63
2022/12/07 03:47:01;;;;;;;8.20;2.50;;;;;;;;;;5011176;28;20053;-63
2022/12/07 03:49:31;;;;;;;;;;;;;;;;;;5011459;28;20054;-63
2022/12/07 03:52:18;;;;;;;4.70;1.92;;;;;;;;;;4994568;28;20449;-64
2022/12/07 03:55:14;;;;;;;8.25;1.88;;;;;;;;;;5010915;28;20061;-64
2022/12/07 03:57:47;;;;;;;8.00;1.92;;;;;;;;;;5010873;28;20854;-64
2022/12/07 04:00:19;;;;;;;3.65;1.88;;;;;;;;;;5011126;28;20525;-63
2022/12/07 04:02:53;;;;;;;5.78;2.00;;;;;;;;;;4958619;28;20414;-64
2022/12/07 04:05:23;;;;;;;4.25;1.67;;;;;;;;;;5007482;28;20069;-63
2022/12/07 04:07:53;;;;;;;8.63;2.25;;;;;;;;;;5010583;28;20202;-64
2022/12/07 04:10:24;;;;;;;4.88;2.50;;;;;;;;;;5010737;28;20065;-64
2022/12/07 04:12:54;;;;;;;7.82;1.92;;;;;;;;;;4990688;28;20529;-63
2022/12/07 04:15:24;;;;;;;4.82;2.67;;;;;;;;;;4991230;28;20054;-64
2022/12/07 04:17:54;;;;;;;4.80;2.10;;;;;;;;;;4958338;28;20058;-63
2022/12/07 04:20:24;;;;;;;6.28;2.47;;;;;;;;;;4974442;28;20066;-63
2022/12/07 04:22:55;;;;;;;7.18;2.20;;;;;;;;;;4990463;28;20054;-64
2022/12/07 04:25:26;;;;;;;6.15;2.28;;;;;;;;;;4958452;28;20054;-63
2022/12/07 04:27:56;;;;;;;6.95;3.10;;;;;;;;;;4990610;28;20054;-64
2022/12/07 04:30:25;;;;;;;3.97;1.83;;;;;;;;;;4989522;28;20053;-64
2022/12/07 04:32:55;;;;;;;6.55;1.85;;;;;;;;;;5018609;28;20068;-64
2022/12/07 04:35:25;;;;;;;5.55;1.80;;;;;;;;;;5069601;28;20048;-64
2022/12/07 04:37:55;;;;;;;5.65;1.85;;;;;;;;;;5053195;28;20488;-64
2022/12/07 04:40:25;;;;;;;9.77;1.83;;;;;;;;;;5069809;28;20188;-64
2022/12/07 04:42:55;;;;;;;4.60;2.53;;;;;;;;;;5053165;28;20067;-64
2022/12/07 04:45:25;;;;;;;9.57;2.55;;;;;;;;;;5069682;28;20052;-64
2022/12/07 04:47:55;;;;;;;4.07;1.70;;;;;;;;;;5069866;28;20470;-64
2022/12/07 04:50:25;;;;;;;5.50;1.65;;;;;;;;;;5047362;28;20064;-64
2022/12/07 04:52:55;;;;;;;5.53;1.88;;;;;;;;;;5036119;28;20072;-64
2022/12/07 04:55:25;;;;;;;4.03;2.05;;;;;;;;;;5028667;28;20068;-64
2022/12/07 04:57:55;;;;;;;4.03;2.10;;;;;;;;;;5012747;28;20493;-64
2022/12/07 05:00:24;;;;;;;8.35;1.80;;;;;;;;;;4980123;28;20061;-64
2022/12/07 05:02:54;;;;;;;5.78;1.50;;;;;;;;;;5029682;28;20086;-64
2022/12/07 05:05:24;;;;;;;3.30;1.77;;;;;;;;;;5029180;28;20467;-64
2022/12/07 05:07:54;;;;;;;5.03;1.70;;;;;;;;;;5029400;28;20053;-64
2022/12/07 05:10:25;;;;;;;5.88;2.72;;;;;;;;;;5029204;28;20057;-64
2022/12/07 05:12:54;;;;;;;3.80;1.65;;;;;;;;;;5029366;28;20585;-64
2022/12/07 05:15:25;;;;;;;6.30;1.90;;;;;;;;;;5028938;28;20053;-64
2022/12/07 05:17:55;;;;;;;8.32;1.90;;;;;;;;;;5029421;28;20416;-64
2022/12/07 05:20:25;;;;;;;5.43;2.15;;;;;;;;;;4996759;28;20048;-64
2022/12/07 05:22:55;;;;;;;4.78;1.70;;;;;;;;;;4979634;28;20049;-64
2022/12/07 05:25:25;;;;;;;7.30;2.15;;;;;;;;;;5029793;28;20057;-64
2022/12/07 05:27:56;;;;;;;3.08;1.95;;;;;;;;;;5026135;28;20067;-65
2022/12/07 05:30:26;;;;;;;4.55;1.85;;;;;;;;;;5048761;28;20655;-65
2022/12/07 05:32:56;;;;;;;6.50;1.98;;;;;;;;;;5048744;28;20428;-64
2022/12/07 05:35:27;;;;;;;5.35;1.90;;;;;;;;;;5015280;28;20057;-64
2022/12/07 05:37:58;;;;;;;3.75;2.03;;;;;;;;;;5049242;28;20049;-64
2022/12/07 05:40:27;;;;;;;6.80;1.80;;;;;;;;;;5031632;28;20459;-65
2022/12/07 05:42:57;;;;;;;12.48;2.08;;;;;;;;;;5054993;28;20060;-64
2022/12/07 05:45:32;;;;;;;5.50;2.20;;;;;;;;;;5111463;28;20043;-64
2022/12/07 05:48:02;;;;;;;6.10;1.75;;;;;;;;;;5059397;28;20055;-64
2022/12/07 05:50:33;;;;;;;4.55;2.60;;;;;;;;;;5111598;28;20051;-64
2022/12/07 05:53:03;;;;;;;4.18;1.85;;;;;;;;;;5026232;28;20050;-64
2022/12/07 05:55:32;;;;;;;6.82;2.55;;;;;;;;;;5057674;28;20048;-64
2022/12/07 06:00:51;;;;;;;6.35;1.92;;;;;;;;;;5091486;28;20047;-64
2022/12/07 06:03:21;;;;;;;13.50;3.28;;;;;;;;;;5091938;28;20062;-64
2022/12/07 06:05:53;;;;;;;7.82;2.60;;;;;;;;;;5091849;28;20062;-64
2022/12/07 06:08:23;;;;;;;6.20;2.00;;;;;;;;;;5075204;28;20047;-64
2022/12/07 06:12:33;;;;;;;4.80;1.77;;;;;;;;;;5108711;28;20070;-64
2022/12/07 06:13:43;;;;;;;5.28;1.88;;;;;;;;;;5081577;28;20059;-64
2022/12/07 06:16:15;;;;;;;7.93;2.03;;;;;;;;;;5108889;28;20043;-64
2022/12/07 06:18:45;;;;;;;6.60;1.90;;;;;;;;;;5108757;28;20486;-64
2022/12/07 06:21:15;;;;;;;6.85;1.92;;;;;;;;;;5058189;28;20061;-64
2022/12/07 06:23:45;;;;;;;9.90;1.92;;;;;;;;;;5108732;28;20064;-64
2022/12/07 06:26:16;;;;;;;5.97;2.75;;;;;;;;;;5058215;28;20055;-64
2022/12/07 06:28:46;;;;;;;4.65;2.10;;;;;;;;;;5068002;28;20059;-64
2022/12/07 06:31:16;;;;;;;4.07;2.03;;;;;;;;;;5034721;28;20067;-64
2022/12/07 06:33:45;;;;;;;6.03;2.25;;;;;;;;;;5051680;28;20600;-64
2022/12/07 06:36:16;;;;;;;7.30;2.38;;;;;;;;;;5068158;28;20531;-64
2022/12/07 06:38:51;;;;;;;6.38;2.45;;;;;;;;;;5068162;28;20063;-64
2022/12/07 06:41:23;;;;;;;6.85;1.85;;;;;;;;;;5067793;28;20064;-64
2022/12/07 06:43:53;;;;;;;5.53;2.40;;;;;;;;;;5068010;28;20614;-64
2022/12/07 06:46:24;;;;;;;7.82;2.13;;;;;;;;;;5034332;28;20058;-64
2022/12/07 06:48:55;;;;;;;8.30;2.50;;;;;;;;;;5068232;28;20049;-64
2022/12/07 06:51:25;;;;;;;10.77;2.08;;;;;;;;;;5001502;28;20053;-64
2022/12/07 06:53:55;;;;;;;4.90;2.10;;;;;;;;;;5067879;28;20059;-64
2022/12/07 06:56:26;;;;;;;8.35;1.55;;;;;;;;;;5050571;28;20809;-64
2022/12/07 06:58:56;;;;;;;7.68;2.60;;;;;;;;;;5037157;28;20551;-64
2022/12/07 07:01:27;;;;;;;5.07;1.83;;;;;;;;;;5055511;28;20052;-64
2022/12/07 07:03:57;;;;;;;5.40;1.80;;;;;;;;;;5072103;28;20503;-64
2022/12/07 07:06:27;;;;;;;4.70;1.85;;;;;;;;;;5042740;28;20066;-64
2022/12/07 07:08:57;;;;;;;8.30;1.98;;;;;;;;;;5114890;28;20051;-64
2022/12/07 07:11:28;;;;;;;5.88;2.03;;;;;;;;;;5013394;28;20063;-64
2022/12/07 07:14:01;;;;;;;5.32;1.85;;;;;;;;;;5095621;28;20055;-64
2022/12/07 07:16:32;;;;;;;6.50;2.50;;;;;;;;;;5114664;28;20051;-64
2022/12/07 07:19:02;;;;;;;6.15;2.17;;;;;;;;;;5114951;28;20399;-65
2022/12/07 07:21:32;;;;;;;6.15;2.67;;;;;;;;;;5114273;28;20410;-65
2022/12/07 07:24:03;;;;;;;7.22;1.90;;;;;;;;;;5114410;28;20043;-65
2022/12/07 07:26:33;;;;;;;6.68;2.17;;;;;;;;;;5079291;28;20494;-65
2022/12/07 07:29:03;;;;;;;5.72;2.30;;;;;;;;;;5114314;28;20039;-65
2022/12/07 07:31:35;;;;;;;7.07;1.88;;;;;;;;;;5062849;28;20058;-65
2022/12/07 07:34:06;;;;;;;8.93;2.45;;;;;;;;;;5079098;28;20062;-65
2022/12/07 07:36:35;;;;;;;8.48;2.03;;;;;;;;;;5061625;28;20070;-65
2022/12/07 07:39:05;;;;;;;5.95;2.22;;;;;;;;;;5114344;28;20036;-65
2022/12/07 07:41:35;;;;;;;8.63;2.05;;;;;;;;;;5090833;28;20407;-65
2022/12/07 07:44:05;;;;;;;6.18;2.75;;;;;;;;;;5091129;28;20052;-65
2022/12/07 07:46:35;;;;;;;6.68;2.20;;;;;;;;;;5058341;28;20066;-65
2022/12/07 07:49:06;;;;;;;7.97;2.60;;;;;;;;;;5041104;28;20052;-65
2022/12/07 07:51:35;;;;;;;7.15;2.45;;;;;;;;;;5057202;28;20055;-65
2022/12/07 07:54:05;;;;;;;6.07;2.30;;;;;;;;;;5030561;28;20052;-65
2022/12/07 07:56:35;;;;;;;7.55;2.20;;;;;;;;;;5030065;28;20516;-65
2022/12/07 07:59:05;;;;;;;8.70;2.70;;;;;;;;;;5030881;28;20127;-65
2022/12/07 08:01:35;;;;;;;8.35;2.50;;;;;;;;;;5014519;28;20064;-65
2022/12/07 08:04:05;;;;;;;7.93;2.40;;;;;;;;;;5029466;28;20051;-65
2022/12/07 08:06:35;;;;;;;9.18;2.75;;;;;;;;;;5030543;28;20523;-65
2022/12/07 08:09:06;;;;;;;11.32;2.63;;;;;;;;;;5029898;28;20072;-65
2022/12/07 08:11:36;;;;;;;8.27;2.53;;;;;;;;;;5030508;28;20394;-65
2022/12/07 08:14:07;;;;;;;7.03;2.15;;;;;;;;;;4971425;28;20059;-64
2022/12/07 08:16:38;;;;;;;9.52;2.20;;;;;;;;;;4955273;28;20415;-65
2022/12/07 08:19:09;;;;;;;8.13;3.10;;;;;;;;;;4980470;28;20058;-65
2022/12/07 08:21:38;;;;;;;6.03;2.55;;;;;;;;;;4975047;28;20465;-65
2022/12/07 08:24:08;;;;;;;6.65;2.33;;;;;;;;;;4990760;28;20413;-64
2022/12/07 08:26:38;;;;;;;14.25;2.65;;;;;;;;;;4974692;28;20054;-65
2022/12/07 08:29:08;;;;;;;5.47;2.42;;;;;;;;;;4975086;28;20049;-65
2022/12/07 08:31:38;;;;;;;7.40;2.30;;;;;;;;;;5001365;28;20064;-65
2022/12/07 08:34:12;;;;;;;7.25;2.45;;;;;;;;;;5002038;28;20068;-65
2022/12/07 08:36:41;;;;;;;;;;;;;;;;;;5050562;28;20045;-65
2022/12/07 08:39:11;;;;;;;7.65;2.40;;;;;;;;;;5049872;28;19928;-65
2022/12/07 08:42:01;;;;;;;7.35;2.53;;;;;;;;;;5049857;28;20060;-65
2022/12/07 08:44:31;;;;;;;8.40;1.90;;;;;;;;;;5033228;28;20057;-65
2022/12/07 08:47:06;;;;;;;7.28;2.30;;;;;;;;;;5049847;28;20056;-64
2022/12/07 08:49:45;;;;;;;8.73;2.05;;;;;;;;;;5017715;28;20057;-65
2022/12/07 08:52:16;;;;;;;5.57;2.25;;;;;;;;;;5060251;28;20052;-65
2022/12/07 08:54:46;;;;;;;8.20;2.38;;;;;;;;;;5076346;28;20518;-65
2022/12/07 08:57:17;;;;;;;8.77;2.70;;;;;;;;;;5112194;28;20071;-65
2022/12/07 08:59:47;;;;;;;5.38;2.17;;;;;;;;;;5093284;28;20715;-64
2022/12/07 09:02:16;;;;;;;7.65;2.63;;;;;;;;;;5112556;28;20048;-64
2022/12/07 09:04:46;;;;;;;9.90;2.17;;;;;;;;;;5112658;28;20395;-64
2022/12/07 09:07:17;;;;;;;5.47;2.00;;;;;;;;;;5112459;28;20047;-64
2022/12/07 09:09:46;;;;;;;5.78;1.98;;;;;;;;;;5060059;28;20070;-64
2022/12/07 09:12:17;;;;;;;6.75;2.60;;;;;;;;;;5068944;28;20044;-64
2022/12/07 09:14:46;;;;;;;6.72;2.33;;;;;;;;;;5052398;28;20056;-64
2022/12/07 09:17:17;;;;;;;11.30;2.92;;;;;;;;;;5035544;28;20052;-64
2022/12/07 09:19:48;;;;;;;4.82;2.13;;;;;;;;;;5035813;28;20049;-65
2022/12/07 09:22:18;;;;;;;8.13;2.20;;;;;;;;;;5035488;28;20063;-65
2022/12/07 09:24:48;;;;;;;8.85;2.70;;;;;;;;;;5068858;28;20554;-64
2022/12/07 09:27:18;;;;;;;6.72;2.72;;;;;;;;;;5069129;28;20060;-64
2022/12/07 09:29:48;;;;;;;8.60;2.90;;;;;;;;;;5048696;28;20495;-64
2022/12/07 09:32:18;;;;;;;8.82;3.08;;;;;;;;;;5015679;28;20061;-64
2022/12/07 09:34:47;;;;;;;10.02;2.78;;;;;;;;;;5031813;28;20456;-64
2022/12/07 09:37:17;;;;;;;10.23;3.33;;;;;;;;;;5016205;28;20524;-64
2022/12/07 09:39:48;;;;;;;6.07;2.35;;;;;;;;;;5048685;28;20060;-64
2022/12/07 09:42:32;;;;;;;6.63;3.08;;;;;;;;;;5048443;28;20531;-64
2022/12/07 09:45:07;;;;;;;7.82;2.72;;;;;;;;;;5048980;28;20048;-64
2022/12/07 09:47:38;;;;;;;7.80;3.55;;;;;;;;;;5048506;28;20068;-64
2022/12/07 09:50:19;;;;;;;6.65;3.20;;;;;;;;;;5060111;28;20052;-64
2022/12/07 09:52:51;;;;;;;9.73;3.35;;;;;;;;;;5068458;28;20063;-64
2022/12/07 09:55:28;;;;;;;8.43;3.00;;;;;;;;;;5067880;28;20062;-64
2022/12/07 09:57:58;;;;;;;7.05;3.20;;;;;;;;;;5068113;28;20052;-64
2022/12/07 10:00:30;;;;;;;5.68;3.05;;;;;;;;;;5068373;28;20052;-64
2022/12/07 10:03:02;;;;;;;7.80;3.10;;;;;;;;;;5068449;28;20187;-64
2022/12/07 10:05:45;;;;;;;6.72;2.90;;;;;;;;;;5068444;28;20056;-64
2022/12/07 10:08:17;;;;;;;8.15;3.70;;;;;;;;;;5059603;28;20051;-65
2022/12/07 10:10:53;;;;;;;10.70;3.67;;;;;;;;;;5075463;28;20517;-65
2022/12/07 10:13:47;;;;;;;6.30;2.70;;;;;;;;;;5111008;28;20043;-65
2022/12/07 10:16:40;;;;;;;7.35;2.80;;;;;;;;;;5076123;28;20052;-65
2022/12/07 10:19:36;;;;;;;8.90;3.05;;;;;;;;;;5111352;28;20054;-65
2022/12/07 10:22:17;;;;;;;7.45;3.50;;;;;;;;;;5111521;28;20031;-65
2022/12/07 10:24:48;;;;;;;5.85;2.55;;;;;;;;;;5111414;28;20395;-65
2022/12/07 10:27:30;;;;;;;6.13;2.90;;;;;;;;;;5058852;28;20694;-65
2022/12/07 10:30:09;;;;;;;4.53;3.13;;;;;;;;;;5111210;28;20062;-65
2022/12/07 10:32:39;;;;;;;9.57;2.95;;;;;;;;;;5076705;28;20051;-65
2022/12/07 10:35:25;;;;;;;4.57;2.72;;;;;;;;;;5115262;28;20519;-65
2022/12/07 10:37:58;;;;;;;6.90;2.40;;;;;;;;;;5115238;28;20042;-65
2022/12/07 10:40:34;;;;;;;4.82;2.65;;;;;;;;;;5115399;28;20040;-65
2022/12/07 10:43:13;;;;;;;4.18;2.13;;;;;;;;;;5080627;28;20060;-66
2022/12/07 10:46:18;;;;;;;5.15;2.08;;;;;;;;;;5062489;28;20051;-66
2022/12/07 10:49:26;;;;;;;6.55;2.15;;;;;;;;;;5018624;28;20049;-66
2022/12/07 10:51:56;;;;;;;5.65;2.20;;;;;;;;;;5002699;28;20080;-65
2022/12/07 10:54:48;;;;;;;5.50;2.80;;;;;;;;;;5002564;28;20060;-66
2022/12/07 10:57:43;;;;;;;10.30;2.05;;;;;;;;;;5051512;28;20056;-66
2022/12/07 11:00:19;;;;;;;8.43;2.03;;;;;;;;;;4937304;29;20051;-66
2022/12/07 11:02:51;;;;;;;8.05;2.63;;;;;;;;;;4937407;29;20518;-66
2022/12/07 11:05:30;;;;;;;3.92;2.20;;;;;;;;;;4953307;29;20712;-66
2022/12/07 11:08:30;;;;;;;7.40;2.15;;;;;;;;;;4953733;29;20347;-66
2022/12/07 11:11:09;;;;;;;7.70;2.03;;;;;;;;;;4953501;29;20055;-66
2022/12/07 11:13:53;;;;;;;6.60;2.83;;;;;;;;;;4953187;29;20403;-66
2022/12/07 11:16:37;;;;;;;5.10;2.65;;;;;;;;;;4921288;29;20618;-66
2022/12/07 11:19:10;;;;;;;7.97;2.45;;;;;;;;;;4953480;29;20043;-66
2022/12/07 11:21:58;;;;;;;5.15;1.80;;;;;;;;;;4953365;29;20062;-66
2022/12/07 11:24:43;;;;;;;6.70;1.55;;;;;;;;;;4957738;28;20062;-67
2022/12/07 11:27:13;;;;;;;4.82;1.65;;;;;;;;;;4991803;28;20051;-66
2022/12/07 11:30:18;;;;;;;5.03;1.88;;;;;;;;;;4959211;28;20130;-66
2022/12/07 11:32:55;;;;;;;7.63;2.35;;;;;;;;;;4936834;29;20070;-66
2022/12/07 11:35:47;;;;;;;6.85;2.55;;;;;;;;;;4920854;29;20051;-66
2022/12/07 11:38:21;;;;;;;4.78;1.83;;;;;;;;;;4986551;28;20050;-66
2022/12/07 11:41:14;;;;;;;4.22;1.55;;;;;;;;;;4991517;28;20429;-66
2022/12/07 11:43:56;;;;;;;4.05;1.73;;;;;;;;;;4977111;28;20057;-66
2022/12/07 11:46:36;;;;;;;7.43;3.10;;;;;;;;;;4959790;28;20469;-66
2022/12/07 11:49:23;;;;;;;3.65;1.73;;;;;;;;;;4975019;28;20050;-66
2022/12/07 11:51:58;;;;;;;4.63;1.77;;;;;;;;;;4929993;28;20054;-67
2022/12/07 11:54:35;;;;;;;7.68;1.63;;;;;;;;;;4959331;28;20065;-66
2022/12/07 11:57:14;;;;;;;2.72;1.50;;;;;;;;;;4942269;28;20061;-66
2022/12/07 11:59:52;;;;;;;3.88;1.30;;;;;;;;;;4959225;28;20646;-66
2022/12/07 12:02:43;;;;;;;6.95;1.20;;;;;;;;;;4991307;28;20430;-67
2022/12/07 12:05:26;;;;;;;3.40;1.42;;;;;;;;;;4914457;29;20060;-66
2022/12/07 12:08:04;;;;;;;3.25;1.55;;;;;;;;;;4928789;28;20425;-66
2022/12/07 12:11:38;;;;;;;6.22;1.48;;;;;;;;;;4971633;28;20069;-66
2022/12/07 12:14:20;;;;;;;5.43;1.63;;;;;;;;;;4971313;28;20051;-66
2022/12/07 12:17:30;;;;;;;8.55;4.70;;;;;;;;;;4991039;28;20069;-66
2022/12/07 12:20:30;;;;;;;6.75;2.47;;;;;;;;;;4960361;28;20050;-66
2022/12/07 12:23:27;;;;;;;6.88;1.73;;;;;;;;;;4971418;28;20077;-66
2022/12/07 12:26:01;;;;;;;8.55;2.58;;;;;;;;;;4971415;28;20051;-67
2022/12/07 12:28:41;;;;;;;3.22;1.60;;;;;;;;;;4971305;28;20054;-67
2022/12/07 12:31:21;;;;;;;4.30;2.22;;;;;;;;;;4939156;28;20054;-67
2022/12/07 12:33:53;;;;;;;3.70;1.65;;;;;;;;;;4971453;28;20574;-66
2022/12/07 12:36:45;;;;;;;3.03;1.45;;;;;;;;;;4955670;28;20054;-67
2022/12/07 12:39:18;;;;;;;3.25;1.25;;;;;;;;;;4971465;28;20073;-66
2022/12/07 12:44:23;;;;;;;2.67;0.95;;;;;;;;;;5013019;28;20568;-67
2022/12/07 12:46:57;;;;;;;1.85;0.80;;;;;;;;;;4980926;28;20056;-66
2022/12/07 12:49:43;;;;;;;2.08;1.00;;;;;;;;;;4980829;28;20049;-66
2022/12/07 12:52:15;;;;;;;2.00;1.17;;;;;;;;;;5013165;28;20050;-66
2022/12/07 12:55:09;;;;;;;1.58;1.17;;;;;;;;;;5013570;28;20125;-66
2022/12/07 12:57:39;;;;;;;2.00;1.00;;;;;;;;;;4997288;28;20057;-67
2022/12/07 13:00:21;;;;;;;3.08;0.85;;;;;;;;;;5041367;28;20425;-66
2022/12/07 13:02:59;;;;;;;1.98;1.13;;;;;;;;;;5049519;28;20052;-66
2022/12/07 13:05:31;;;;;;;3.90;0.80;;;;;;;;;;4973724;28;20430;-66
2022/12/07 13:08:24;;;;;;;2.95;0.90;;;;;;;;;;4989666;28;20049;-66
2022/12/07 13:11:32;;;;;;;2.50;0.85;;;;;;;;;;4990252;28;20058;-66
2022/12/07 13:14:41;;;;;;;0.80;0.73;;;;;;;;;;4990157;28;20072;-66
2022/12/07 13:17:32;;;;;;;2.22;1.33;;;;;;;;;;4989733;28;20063;-66
2022/12/07 13:20:07;;;;;;;2.22;1.13;;;;;;;;;;4989492;28;20050;-65
2022/12/07 13:22:49;;;;;;;1.50;0.75;;;;;;;;;;4973610;28;20058;-66
2022/12/07 13:25:37;;;;;;;1.23;0.82;;;;;;;;;;4958194;28;20059;-65
2022/12/07 13:28:18;;;;;;;1.27;0.85;;;;;;;;;;4957582;28;20065;-66
2022/12/07 13:31:00;;;;;;;1.35;1.20;;;;;;;;;;5001716;28;20061;-66
2022/12/07 13:33:34;;;;;;;5.78;1.42;;;;;;;;;;5028939;28;20060;-65
2022/12/07 13:36:05;;;;;;;1.50;1.13;;;;;;;;;;4995996;28;20049;-66
2022/12/07 13:38:37;;;;;;;1.33;1.08;;;;;;;;;;4996352;28;20108;-65
2022/12/07 13:41:17;;;;;;;2.13;0.82;;;;;;;;;;5012150;28;20456;-65
2022/12/07 13:44:14;;;;;;;2.47;1.27;;;;;;;;;;5075541;28;20541;-66
2022/12/07 13:47:21;;;;;;;2.65;1.48;;;;;;;;;;5008957;28;20058;-65
2022/12/07 13:49:54;;;;;;;2.08;1.30;;;;;;;;;;4992658;28;20057;-66
2022/12/07 13:52:30;;;;;;;1.33;1.10;;;;;;;;;;5008850;28;20045;-66
2022/12/07 13:55:20;;;;;;;2.17;1.30;;;;;;;;;;4977156;28;20068;-66
2022/12/07 13:57:52;;;;;;;2.20;1.65;;;;;;;;;;4976431;28;20564;-65
2022/12/07 14:00:26;;;;;;;1.75;0.90;;;;;;;;;;5008991;28;20057;-65
2022/12/07 14:02:59;;;;;;;3.22;1.35;;;;;;;;;;4944239;28;20045;-65
2022/12/07 14:05:31;;;;;;;1.77;1.17;;;;;;;;;;5008529;28;20053;-65
2022/12/07 14:08:10;;;;;;;3.78;1.00;;;;;;;;;;4975412;28;20414;-65
2022/12/07 14:10:50;;;;;;;1.40;1.27;;;;;;;;;;5008775;28;20065;-65
2022/12/07 14:13:29;;;;;;;1.70;1.23;;;;;;;;;;4937496;28;20124;-65
2022/12/07 14:16:01;;;;;;;1.63;1.40;;;;;;;;;;4953266;28;20055;-65
2022/12/07 14:18:41;;;;;;;;;;;;;;;;;;4970120;28;20519;-65
2022/12/07 14:21:22;;;;;;;1.95;1.30;;;;;;;;;;4969714;28;19922;-66
2022/12/07 14:24:18;;;;;;;2.70;1.23;;;;;;;;;;5003606;28;20053;-66
2022/12/07 14:26:50;;;;;;;1.92;1.55;;;;;;;;;;5014896;28;20045;-65
2022/12/07 14:29:38;;;;;;;1.42;1.33;;;;;;;;;;5048283;28;20049;-65
2022/12/07 14:32:27;;;;;;;2.45;1.63;;;;;;;;;;5031551;28;20045;-65
2022/12/07 14:35:09;;;;;;;3.50;1.60;;;;;;;;;;5031724;28;20049;-64
2022/12/07 14:37:42;;;;;;;1.98;1.42;;;;;;;;;;5048168;28;20061;-65
2022/12/07 14:40:18;;;;;;;5.28;1.30;;;;;;;;;;5014847;28;20045;-65
2022/12/07 14:42:52;;;;;;;1.45;1.20;;;;;;;;;;4998852;28;20566;-65
2022/12/07 14:45:23;;;;;;;1.63;1.05;;;;;;;;;;5048095;28;20504;-66
2022/12/07 14:47:54;;;;;;;3.28;0.70;;;;;;;;;;5047960;28;20636;-66
2022/12/07 14:50:53;;;;;;;2.97;1.38;;;;;;;;;;5064923;28;20127;-65
2022/12/07 14:53:49;;;;;;;3.50;2.15;;;;;;;;;;5090624;28;20044;-63
2022/12/07 14:56:25;;;;;;;2.00;1.60;;;;;;;;;;5037926;28;20059;-63
2022/12/07 14:58:55;;;;;;;2.22;1.40;;;;;;;;;;5027871;28;20060;-64
2022/12/07 15:01:27;;;;;;;3.50;0.95;;;;;;;;;;5008080;28;20054;-64
2022/12/07 15:03:57;;;;;;;1.70;1.50;;;;;;;;;;5008258;28;20054;-64
2022/12/07 15:06:27;;;;;;;2.85;1.73;;;;;;;;;;4991489;28;20054;-64
2022/12/07 15:08:58;;;;;;;2.08;1.52;;;;;;;;;;4975692;28;20060;-64
2022/12/07 15:11:28;;;;;;;3.20;1.55;;;;;;;;;;5007971;28;20050;-64
2022/12/07 15:14:13;;;;;;;2.17;1.58;;;;;;;;;;4959575;28;20050;-64
2022/12/07 15:16:44;;;;;;;1.63;1.30;;;;;;;;;;4975320;28;20061;-64
2022/12/07 15:19:34;;;;;;;3.28;1.58;;;;;;;;;;4977222;28;20533;-64
2022/12/07 15:22:05;;;;;;;2.05;1.33;;;;;;;;;;5011863;28;20513;-64
2022/12/07 15:24:35;;;;;;;3.55;1.25;;;;;;;;;;5011578;28;20508;-64
2022/12/07 15:27:05;;;;;;;1.85;1.42;;;;;;;;;;4979108;28;20061;-65
2022/12/07 15:29:34;;;;;;;1.60;1.23;;;;;;;;;;4994807;28;20054;-65
2022/12/07 15:32:05;;;;;;;1.85;1.58;;;;;;;;;;4994852;28;20532;-65
2022/12/07 15:34:35;;;;;;;1.42;0.80;;;;;;;;;;5011639;28;20116;-64
2022/12/07 15:37:08;;;;;;;1.80;1.50;;;;;;;;;;5041286;28;20061;-64
2022/12/07 15:39:38;;;;;;;3.67;1.10;;;;;;;;;;5081482;28;20423;-64
2022/12/07 15:42:08;;;;;;;1.63;1.20;;;;;;;;;;5093872;28;20048;-64